Aviation Digital Data Service (ADDS)

Output produced by METARs form (1220 UTC 25 June 2017)
found at http://aviationweather.gov/adds/metars/
 
METAR text: KCVH 251210Z AUTO 00000KT 10SM BKN011 13/11 A2998 RMK AO1
Conditions at: KCVH (HOLLISTER MUNI , CA, US) observed 1210 UTC 25 June 2017
Temperature: 13.0°C (55°F)
Dewpoint: 11.0°C (52°F) [RH = 88%]
Pressure (altimeter): 29.98 inches Hg (1015.3 mb)
Winds: calm
Visibility: 10 or more miles (16+ km)
Ceiling: 1100 feet AGL
Clouds: broken clouds at 1100 feet AGL
Weather: automated observation with no human augmentation;
there may or may not be significant weather present at this time